createdAt,value
2019-02-17T00:00:44.956Z,5.50
2019-02-17T00:03:13.859Z,5.47
2019-02-17T00:05:43.983Z,4.42
2019-02-17T00:08:12.952Z,6.47
2019-02-17T00:10:41.848Z,5.90
2019-02-17T00:13:11.066Z,5.37
2019-02-17T00:15:41.473Z,5.00
2019-02-17T00:18:10.488Z,5.92
2019-02-17T00:20:41.216Z,5.37
2019-02-17T00:23:10.203Z,5.30
2019-02-17T00:25:39.213Z,5.30
2019-02-17T00:28:08.345Z,4.87
2019-02-17T00:30:37.972Z,5.50
2019-02-17T00:33:07.114Z,5.40
2019-02-17T00:35:36.008Z,5.62
2019-02-17T00:38:05.530Z,5.42
2019-02-17T00:40:34.379Z,4.87
2019-02-17T00:43:03.213Z,5.15
2019-02-17T00:45:32.161Z,5.33
2019-02-17T00:48:01.064Z,5.75
2019-02-17T00:50:30.060Z,5.47
2019-02-17T00:53:00.422Z,4.72
2019-02-17T00:55:31.321Z,5.20
2019-02-17T00:58:00.216Z,6.05
2019-02-17T01:00:30.014Z,5.92
2019-02-17T01:02:58.915Z,5.00
2019-02-17T01:05:28.925Z,4.55
2019-02-17T01:07:57.958Z,4.25
2019-02-17T01:10:27.252Z,5.20
2019-02-17T01:12:56.145Z,4.62
2019-02-17T01:15:25.036Z,6.12
2019-02-17T01:17:53.928Z,5.08
2019-02-17T01:20:23.038Z,4.67
2019-02-17T01:22:52.403Z,5.08
2019-02-17T01:25:21.422Z,5.08
2019-02-17T01:27:50.315Z,5.72
2019-02-17T01:30:22.740Z,4.95
2019-02-17T01:32:51.788Z,4.83
2019-02-17T01:35:20.881Z,6.15
2019-02-17T01:37:49.852Z,5.08
2019-02-17T01:40:18.871Z,4.62
2019-02-17T01:42:48.703Z,4.80
2019-02-17T01:45:17.749Z,5.83
2019-02-17T01:47:46.986Z,5.35
2019-02-17T01:50:16.077Z,5.25
2019-02-17T01:52:44.984Z,5.50
2019-02-17T01:55:14.064Z,4.95
2019-02-17T01:57:42.931Z,5.33
2019-02-17T02:00:14.480Z,5.83
2019-02-17T02:02:43.400Z,3.83
2019-02-17T02:05:12.362Z,5.75
2019-02-17T02:07:41.879Z,6.00
2019-02-17T02:10:11.388Z,6.37
2019-02-17T02:12:40.401Z,6.22
2019-02-17T02:15:11.345Z,5.95
2019-02-17T02:17:40.643Z,5.78
2019-02-17T02:20:11.914Z,4.95
2019-02-17T02:22:41.704Z,4.58
2019-02-17T02:25:10.801Z,4.10
2019-02-17T02:27:40.177Z,4.45
2019-02-17T02:30:11.858Z,5.72
2019-02-17T02:32:40.750Z,6.97
2019-02-17T02:35:09.728Z,5.55
2019-02-17T02:37:38.778Z,6.97
2019-02-17T02:40:08.873Z,6.10
2019-02-17T02:42:37.555Z,5.83
2019-02-17T02:45:09.216Z,6.05
2019-02-17T02:47:38.813Z,5.35
2019-02-17T02:50:10.777Z,5.17
2019-02-17T02:52:39.638Z,5.60
2019-02-17T02:55:09.378Z,5.92
2019-02-17T02:57:38.141Z,6.25
2019-02-17T03:00:11.993Z,5.45
2019-02-17T03:02:41.093Z,4.90
2019-02-17T03:05:10.135Z,5.62
2019-02-17T03:07:39.569Z,6.03
2019-02-17T03:10:09.797Z,5.33
2019-02-17T03:12:38.993Z,5.55
2019-02-17T03:15:09.204Z,7.53
2019-02-17T03:17:40.670Z,6.25
2019-02-17T03:20:10.584Z,5.50
2019-02-17T03:22:39.476Z,4.95
2019-02-17T03:25:09.185Z,5.85
2019-02-17T03:27:38.067Z,5.72
2019-02-17T03:30:09.837Z,5.90
2019-02-17T03:32:39.136Z,5.75
2019-02-17T03:35:08.731Z,4.90
2019-02-17T03:37:37.740Z,6.87
2019-02-17T03:40:08.899Z,4.58
2019-02-17T03:42:37.760Z,5.42
2019-02-17T03:45:09.466Z,6.97
2019-02-17T03:47:38.274Z,6.40
2019-02-17T03:50:08.053Z,6.10
2019-02-17T03:52:36.902Z,6.75
2019-02-17T03:55:05.937Z,5.80
2019-02-17T03:57:36.109Z,5.72
2019-02-17T04:00:16.511Z,7.40
2019-02-17T04:02:37.390Z,6.58
2019-02-17T04:05:06.766Z,6.15
2019-02-17T04:07:35.704Z,6.72
2019-02-17T04:10:04.975Z,6.37
2019-02-17T04:12:34.146Z,6.42
2019-02-17T04:15:03.021Z,6.00
2019-02-17T04:17:31.863Z,5.75
2019-02-17T04:20:00.981Z,6.67
2019-02-17T04:22:29.810Z,5.20
2019-02-17T04:24:58.758Z,5.78
2019-02-17T04:27:27.865Z,5.30
2019-02-17T04:29:57.881Z,6.50
2019-02-17T04:32:26.877Z,5.12
2019-02-17T04:34:55.851Z,6.12
2019-02-17T04:37:24.868Z,5.85
2019-02-17T04:39:53.757Z,4.87
2019-02-17T04:42:22.858Z,5.92
2019-02-17T04:44:53.535Z,5.22
2019-02-17T04:47:22.463Z,5.30
2019-02-17T04:49:51.376Z,5.70
2019-02-17T04:52:21.145Z,5.47
2019-02-17T04:54:50.061Z,5.90
2019-02-17T04:57:18.865Z,6.50
2019-02-17T04:59:48.756Z,4.67
2019-02-17T05:02:17.673Z,5.50
2019-02-17T05:04:46.564Z,5.20
2019-02-17T05:07:15.456Z,5.12
2019-02-17T05:09:44.725Z,4.80
2019-02-17T05:12:13.656Z,5.78
2019-02-17T05:14:43.950Z,5.28
2019-02-17T05:17:12.871Z,6.25
2019-02-17T05:19:41.673Z,6.42
2019-02-17T05:22:10.854Z,6.75
2019-02-17T05:24:39.720Z,5.75
2019-02-17T05:27:08.537Z,5.67
2019-02-17T05:29:37.403Z,4.87
2019-02-17T05:32:06.423Z,6.10
2019-02-17T05:34:35.195Z,5.83
2019-02-17T05:37:04.528Z,7.00
2019-02-17T05:39:33.375Z,5.55
2019-02-17T05:42:02.399Z,5.10
2019-02-17T05:44:31.290Z,5.85
2019-02-17T05:47:00.192Z,6.10
2019-02-17T05:49:29.169Z,6.95
2019-02-17T05:51:58.059Z,5.35
2019-02-17T05:54:28.496Z,5.95
2019-02-17T05:56:57.362Z,5.80
2019-02-17T05:59:26.490Z,4.75
2019-02-17T06:01:55.788Z,6.12
2019-02-17T06:04:24.676Z,5.12
2019-02-17T06:06:54.184Z,6.20
2019-02-17T06:09:23.078Z,4.62
2019-02-17T06:11:51.968Z,5.45
2019-02-17T06:14:21.064Z,4.15
2019-02-17T06:16:49.956Z,5.33
2019-02-17T06:19:18.848Z,4.78
2019-02-17T06:21:48.188Z,5.62
2019-02-17T06:24:17.217Z,7.17
2019-02-17T06:26:46.135Z,6.47
2019-02-17T06:29:16.138Z,7.67
2019-02-17T06:31:45.019Z,6.95
2019-02-17T06:34:14.042Z,5.85
2019-02-17T06:36:43.011Z,7.20
2019-02-17T06:39:12.030Z,5.78
2019-02-17T06:41:40.923Z,5.85
2019-02-17T06:44:10.020Z,8.75
2019-02-17T06:46:40.528Z,7.10
2019-02-17T06:49:09.526Z,6.83
2019-02-17T06:51:38.280Z,5.53
2019-02-17T06:54:07.977Z,5.20
2019-02-17T06:56:47.490Z,5.95
2019-02-17T06:59:16.483Z,5.85
2019-02-17T07:01:45.353Z,7.15
2019-02-17T07:04:14.242Z,7.80
2019-02-17T07:06:44.995Z,5.83
2019-02-17T07:09:14.096Z,7.05
2019-02-17T07:11:45.113Z,6.95
2019-02-17T07:14:14.222Z,6.85
2019-02-17T07:16:43.227Z,8.08
2019-02-17T07:19:12.119Z,8.28
2019-02-17T07:21:41.010Z,9.93
2019-02-17T07:24:11.339Z,10.43
2019-02-17T07:26:41.049Z,11.05
2019-02-17T07:29:09.939Z,9.50
2019-02-17T07:31:39.042Z,9.43
2019-02-17T07:34:08.135Z,8.37
2019-02-17T07:36:37.207Z,7.23
2019-02-17T07:39:06.476Z,6.20
2019-02-17T07:41:35.424Z,6.07
2019-02-17T07:44:04.153Z,6.93
2019-02-17T07:46:33.027Z,5.93
2019-02-17T07:49:01.875Z,5.97
2019-02-17T07:51:30.623Z,5.07
2019-02-17T07:53:59.548Z,5.50
2019-02-17T07:56:28.775Z,6.03
2019-02-17T07:58:57.645Z,5.93
2019-02-17T08:01:26.557Z,5.13
2019-02-17T08:03:55.451Z,6.40
2019-02-17T08:06:24.417Z,6.03
2019-02-17T08:08:54.022Z,6.10
2019-02-17T08:11:22.948Z,6.17
2019-02-17T08:13:51.838Z,6.40
2019-02-17T08:16:20.808Z,6.20
2019-02-17T08:18:51.547Z,6.30
2019-02-17T08:21:20.359Z,6.37
2019-02-17T08:23:49.249Z,6.63
2019-02-17T08:26:19.780Z,6.13
2019-02-17T08:28:50.682Z,5.57
2019-02-17T08:31:19.611Z,6.90
2019-02-17T08:33:48.503Z,5.23
2019-02-17T08:36:17.601Z,6.20
2019-02-17T08:38:46.488Z,6.83
2019-02-17T08:41:18.295Z,6.20
2019-02-17T08:43:47.938Z,5.67
2019-02-17T08:46:16.852Z,5.23
2019-02-17T08:48:46.568Z,5.33
2019-02-17T08:51:15.456Z,6.10
2019-02-17T08:53:44.540Z,5.63
2019-02-17T08:56:13.442Z,6.70
2019-02-17T08:58:42.589Z,5.63
2019-02-17T09:01:11.510Z,6.77
2019-02-17T09:03:42.097Z,6.67
2019-02-17T09:06:11.549Z,7.70
2019-02-17T09:08:40.570Z,6.53
2019-02-17T09:11:09.667Z,6.90
2019-02-17T09:13:38.761Z,7.23
2019-02-17T09:16:07.857Z,7.33
2019-02-17T09:18:36.710Z,7.60
2019-02-17T09:21:06.026Z,6.73
2019-02-17T09:23:34.899Z,5.03
2019-02-17T09:26:03.833Z,7.43
2019-02-17T09:28:32.725Z,6.70
2019-02-17T09:31:01.621Z,7.10
2019-02-17T09:33:30.487Z,6.60
2019-02-17T09:35:59.370Z,6.27
2019-02-17T09:38:29.935Z,6.13
2019-02-17T09:40:59.032Z,5.53
2019-02-17T09:43:28.329Z,7.27
2019-02-17T09:45:57.200Z,7.07
2019-02-17T09:48:26.115Z,5.00
2019-02-17T09:50:55.212Z,7.90
2019-02-17T09:53:24.310Z,6.70
2019-02-17T09:55:55.123Z,6.23
2019-02-17T09:58:24.140Z,6.27
2019-02-17T10:00:53.035Z,5.70
2019-02-17T10:03:22.336Z,7.23
2019-02-17T10:05:51.233Z,6.73
2019-02-17T10:08:20.323Z,7.23
2019-02-17T10:10:50.224Z,4.10
2019-02-17T10:13:19.342Z,7.67
2019-02-17T10:15:48.228Z,4.97
2019-02-17T10:18:17.118Z,6.40
2019-02-17T10:20:46.626Z,7.37
2019-02-17T10:23:15.725Z,6.90
2019-02-17T10:25:46.148Z,5.90
2019-02-17T10:28:15.247Z,7.90
2019-02-17T10:30:44.351Z,7.33
2019-02-17T10:33:13.288Z,8.10
2019-02-17T10:35:42.378Z,8.03
2019-02-17T10:38:11.326Z,7.47
2019-02-17T10:40:40.218Z,7.40
2019-02-17T10:43:09.211Z,6.10
2019-02-17T10:45:38.102Z,7.70
2019-02-17T10:48:07.288Z,6.80
2019-02-17T10:50:36.161Z,7.20
2019-02-17T10:53:07.340Z,7.30
2019-02-17T10:55:36.179Z,6.80
2019-02-17T10:58:05.123Z,6.57
2019-02-17T11:00:33.981Z,7.47
2019-02-17T11:03:07.840Z,6.23
2019-02-17T11:05:36.921Z,7.83
2019-02-17T11:08:06.019Z,7.63
2019-02-17T11:10:34.932Z,6.57
2019-02-17T11:13:03.809Z,8.10
2019-02-17T11:15:33.110Z,7.20
2019-02-17T11:18:02.205Z,6.33
2019-02-17T11:20:32.518Z,5.97
2019-02-17T11:23:01.622Z,7.30
2019-02-17T11:25:30.592Z,7.43
2019-02-17T11:28:01.184Z,7.53
2019-02-17T11:30:31.153Z,7.33
2019-02-17T11:33:00.065Z,7.53
2019-02-17T11:35:29.953Z,7.20
2019-02-17T11:37:59.094Z,7.30
2019-02-17T11:40:27.968Z,7.50
2019-02-17T11:42:58.508Z,6.80
2019-02-17T11:45:27.547Z,6.90
2019-02-17T11:47:56.340Z,7.67
2019-02-17T11:50:25.583Z,6.43
2019-02-17T11:52:55.287Z,5.83
2019-02-17T11:55:24.386Z,6.80
2019-02-17T11:57:53.480Z,6.83
2019-02-17T12:00:23.493Z,7.00
2019-02-17T12:02:52.496Z,6.47
2019-02-17T12:05:21.807Z,6.90
2019-02-17T12:07:51.095Z,5.47
2019-02-17T12:10:21.695Z,6.87
2019-02-17T12:12:50.726Z,6.80
2019-02-17T12:15:19.822Z,6.47
2019-02-17T12:17:49.130Z,5.90
2019-02-17T12:20:21.842Z,5.00
2019-02-17T12:22:52.334Z,6.30
2019-02-17T12:25:22.863Z,7.00
2019-02-17T12:27:53.398Z,6.23
2019-02-17T12:30:23.930Z,6.27
2019-02-17T12:32:53.032Z,5.60
2019-02-17T12:35:22.120Z,4.87
2019-02-17T12:37:51.214Z,5.83
2019-02-17T12:40:20.317Z,5.50
2019-02-17T12:42:51.041Z,5.90
2019-02-17T12:45:20.146Z,7.40
2019-02-17T12:47:57.485Z,6.17
2019-02-17T12:50:19.767Z,7.00
2019-02-17T12:52:48.748Z,5.97
2019-02-17T12:55:17.758Z,5.57
2019-02-17T12:57:49.730Z,6.80
2019-02-17T13:00:19.550Z,7.37
2019-02-17T13:02:48.538Z,6.60
2019-02-17T13:05:20.055Z,6.73
2019-02-17T13:07:49.188Z,5.93
2019-02-17T13:10:18.281Z,6.70
2019-02-17T13:12:49.405Z,6.37
2019-02-17T13:15:18.109Z,5.90
2019-02-17T13:17:47.206Z,6.30
2019-02-17T13:20:16.918Z,5.87
2019-02-17T13:22:46.219Z,6.03
2019-02-17T13:25:17.558Z,6.40
2019-02-17T13:27:46.462Z,5.77
2019-02-17T13:30:27.306Z,6.60
2019-02-17T13:32:56.315Z,6.50
2019-02-17T13:35:25.427Z,5.60
2019-02-17T13:37:54.530Z,6.57
2019-02-17T13:40:23.400Z,6.03
2019-02-17T13:42:52.311Z,6.17
2019-02-17T13:45:22.719Z,5.70
2019-02-17T13:47:51.734Z,6.17
2019-02-17T13:50:20.811Z,6.47
2019-02-17T13:52:49.923Z,5.80
2019-02-17T13:55:19.023Z,5.50
2019-02-17T13:57:48.116Z,5.63
2019-02-17T14:00:20.697Z,5.93
2019-02-17T14:02:49.793Z,5.03
2019-02-17T14:05:18.889Z,5.00
2019-02-17T14:07:47.983Z,5.63
2019-02-17T14:10:17.285Z,6.17
2019-02-17T14:12:46.381Z,5.80
2019-02-17T14:15:20.194Z,5.10
2019-02-17T14:17:50.228Z,5.53
2019-02-17T14:20:19.204Z,5.60
2019-02-17T14:22:48.303Z,5.87
2019-02-17T14:25:18.620Z,5.60
2019-02-17T14:27:47.722Z,5.33
2019-02-17T14:30:18.094Z,5.90
2019-02-17T14:32:47.351Z,5.47
2019-02-17T14:35:16.649Z,5.63
2019-02-17T14:37:45.956Z,5.10
2019-02-17T14:40:15.460Z,5.03
2019-02-17T14:42:44.557Z,5.67
2019-02-17T14:45:14.797Z,5.63
2019-02-17T14:47:44.916Z,4.73
2019-02-17T14:50:14.299Z,5.17
2019-02-17T14:52:43.395Z,5.40
2019-02-17T14:55:13.420Z,5.13
2019-02-17T14:57:42.723Z,5.20
2019-02-17T15:00:18.172Z,5.23
2019-02-17T15:02:47.469Z,5.43
2019-02-17T15:05:16.567Z,5.83
2019-02-17T15:07:47.098Z,4.43
2019-02-17T15:10:16.059Z,4.73
2019-02-17T15:12:45.287Z,5.47
2019-02-17T15:15:16.111Z,4.73
2019-02-17T15:17:45.073Z,4.73
2019-02-17T15:20:19.640Z,5.10
2019-02-17T15:22:48.740Z,4.37
2019-02-17T15:25:19.082Z,5.00
2019-02-17T15:27:48.162Z,5.17
2019-02-17T15:30:18.052Z,5.30
2019-02-17T15:32:47.547Z,4.93
2019-02-17T15:35:16.891Z,5.00
2019-02-17T15:37:46.192Z,4.33
2019-02-17T15:40:16.029Z,4.83
2019-02-17T15:42:45.212Z,4.90
2019-02-17T15:45:16.729Z,5.10
2019-02-17T15:47:46.057Z,5.07
2019-02-17T15:50:15.769Z,4.30
2019-02-17T15:52:44.978Z,4.27
2019-02-17T15:55:16.152Z,4.90
2019-02-17T15:57:48.978Z,3.90
2019-02-17T16:00:19.221Z,4.40
2019-02-17T16:02:49.650Z,3.47
2019-02-17T16:05:19.289Z,3.53
2019-02-17T16:07:49.767Z,3.70
2019-02-17T16:10:21.045Z,4.03
2019-02-17T16:12:50.039Z,3.53
2019-02-17T16:15:20.958Z,3.23
2019-02-17T16:17:49.877Z,2.70
2019-02-17T16:20:18.958Z,2.80
2019-02-17T16:22:47.996Z,2.60
2019-02-17T16:25:17.052Z,2.80
2019-02-17T16:27:51.167Z,2.80
2019-02-17T16:30:24.150Z,2.20
2019-02-17T16:32:53.257Z,2.40
2019-02-17T16:35:23.676Z,2.40
2019-02-17T16:37:52.777Z,2.03
2019-02-17T16:40:21.766Z,2.47
2019-02-17T16:42:50.770Z,3.53
2019-02-17T16:45:19.733Z,1.90
2019-02-17T16:47:48.609Z,1.90
2019-02-17T16:50:22.416Z,2.47
2019-02-17T16:52:51.311Z,2.00
2019-02-17T16:55:20.105Z,2.00
2019-02-17T16:57:49.253Z,2.20
2019-02-17T17:00:23.252Z,2.20
2019-02-17T17:02:54.051Z,2.03
2019-02-17T17:05:25.655Z,2.00
2019-02-17T17:07:54.630Z,2.03
2019-02-17T17:10:23.495Z,1.80
2019-02-17T17:12:52.630Z,2.00
2019-02-17T17:15:21.613Z,2.20
2019-02-17T17:17:50.721Z,2.10
2019-02-17T17:20:20.743Z,1.77
2019-02-17T17:22:49.827Z,2.07
2019-02-17T17:25:19.704Z,2.00
2019-02-17T17:27:48.514Z,2.43
2019-02-17T17:30:19.414Z,2.00
2019-02-17T17:32:48.470Z,2.30
2019-02-17T17:35:17.357Z,2.33
2019-02-17T17:37:46.325Z,2.07
2019-02-17T17:40:16.666Z,2.20
2019-02-17T17:42:45.673Z,2.00
2019-02-17T17:45:19.689Z,2.50
2019-02-17T17:47:50.132Z,2.37
2019-02-17T17:50:19.238Z,2.37
2019-02-17T17:52:48.205Z,2.20
2019-02-17T17:55:17.879Z,2.00
2019-02-17T17:57:47.046Z,2.37
2019-02-17T18:00:18.645Z,2.13
2019-02-17T18:02:47.492Z,2.20
2019-02-17T18:05:16.614Z,1.63
2019-02-17T18:07:46.916Z,2.13
2019-02-17T18:10:17.926Z,1.53
2019-02-17T18:12:47.049Z,2.00
2019-02-17T18:15:20.483Z,2.13
2019-02-17T18:17:54.611Z,1.90
2019-02-17T18:20:21.392Z,1.87
2019-02-17T18:22:50.472Z,2.17
2019-02-17T18:25:19.340Z,1.60
2019-02-17T18:27:48.254Z,1.73
2019-02-17T18:30:21.049Z,1.27
2019-02-17T18:32:49.934Z,2.43
2019-02-17T18:35:20.355Z,1.47
2019-02-17T18:37:51.181Z,2.17
2019-02-17T18:40:20.598Z,2.07
2019-02-17T18:42:49.616Z,1.80
2019-02-17T18:45:18.558Z,1.90
2019-02-17T18:47:47.282Z,1.97
2019-02-17T18:50:17.266Z,1.80
2019-02-17T18:52:46.576Z,1.80
2019-02-17T18:55:15.903Z,2.83
2019-02-17T18:57:50.096Z,2.17
2019-02-17T19:00:20.647Z,1.87
2019-02-17T19:02:49.946Z,1.60
2019-02-17T19:05:21.612Z,1.63
2019-02-17T19:07:49.650Z,1.60
2019-02-17T19:10:18.626Z,2.00
2019-02-17T19:12:47.563Z,1.70
2019-02-17T19:15:20.819Z,1.77
2019-02-17T19:17:49.641Z,1.87
2019-02-17T19:20:27.136Z,2.03
2019-02-17T19:22:55.890Z,2.23
2019-02-17T19:25:24.639Z,1.57
2019-02-17T19:27:53.490Z,2.07
2019-02-17T19:30:22.228Z,2.20
2019-02-17T19:32:52.796Z,1.97
2019-02-17T19:35:22.352Z,2.17
2019-02-17T19:37:51.184Z,2.23
2019-02-17T19:40:19.999Z,1.98
2019-02-17T19:42:49.010Z,1.62
2019-02-17T19:45:18.921Z,2.02
2019-02-17T19:47:47.612Z,2.20
2019-02-17T19:50:19.056Z,1.80
2019-02-17T19:52:47.649Z,1.87
2019-02-17T19:55:16.537Z,2.27
2019-02-17T19:57:45.427Z,2.42
2019-02-17T20:00:16.667Z,1.45
2019-02-17T20:02:47.103Z,1.47
2019-02-17T20:05:17.769Z,1.87
2019-02-17T20:07:47.044Z,2.00
2019-02-17T20:10:16.166Z,2.00
2019-02-17T20:12:44.999Z,1.85
2019-02-17T20:15:14.031Z,2.77
2019-02-17T20:17:42.883Z,2.47
2019-02-17T20:20:11.906Z,2.37
2019-02-17T20:22:41.002Z,2.55
2019-02-17T20:25:10.177Z,2.83
2019-02-17T20:27:39.199Z,2.50
2019-02-17T20:30:10.824Z,3.17
2019-02-17T20:32:39.818Z,3.15
2019-02-17T20:35:09.763Z,2.47
2019-02-17T20:37:38.558Z,2.65
2019-02-17T20:40:12.730Z,2.95
2019-02-17T20:42:41.941Z,2.45
2019-02-17T20:45:13.802Z,2.50
2019-02-17T20:47:42.716Z,2.70
2019-02-17T20:50:17.042Z,2.52
2019-02-17T20:52:46.343Z,2.42
2019-02-17T20:55:15.699Z,2.37
2019-02-17T20:57:44.540Z,2.95
2019-02-17T21:00:15.433Z,2.00
2019-02-17T21:02:44.730Z,2.83
2019-02-17T21:05:14.079Z,1.80
2019-02-17T21:07:42.887Z,2.12
2019-02-17T21:10:13.062Z,1.82
2019-02-17T21:12:41.958Z,2.33
2019-02-17T21:15:15.084Z,2.35
2019-02-17T21:17:44.068Z,2.40
2019-02-17T21:20:19.882Z,2.65
2019-02-17T21:22:48.791Z,2.35
2019-02-17T21:25:17.711Z,2.52
2019-02-17T21:27:48.994Z,1.95
2019-02-17T21:30:19.993Z,2.42
2019-02-17T21:32:50.323Z,2.17
2019-02-17T21:35:21.059Z,2.35
2019-02-17T21:37:50.667Z,1.95
2019-02-17T21:40:19.427Z,2.67
2019-02-17T21:42:48.456Z,2.33
2019-02-17T21:45:17.751Z,2.55
2019-02-17T21:47:47.528Z,2.27
2019-02-17T21:50:16.824Z,2.33
2019-02-17T21:52:45.723Z,2.40
2019-02-17T21:55:15.332Z,2.22
2019-02-17T21:57:44.137Z,2.67
2019-02-17T22:00:18.023Z,2.27
2019-02-17T22:02:46.790Z,2.83
2019-02-17T22:05:15.733Z,2.20
2019-02-17T22:07:44.703Z,2.55
2019-02-17T22:10:17.722Z,2.37
2019-02-17T22:12:47.027Z,1.80
2019-02-17T22:15:20.717Z,2.10
2019-02-17T22:17:49.479Z,2.55
2019-02-17T22:20:18.625Z,2.33
2019-02-17T22:22:47.707Z,2.25
2019-02-17T22:25:18.190Z,2.67
2019-02-17T22:27:46.980Z,2.17
2019-02-17T22:30:15.989Z,2.45
2019-02-17T22:32:45.228Z,2.15
2019-02-17T22:35:14.351Z,1.62
2019-02-17T22:37:43.184Z,1.85
2019-02-17T22:40:16.160Z,1.87
2019-02-17T22:42:45.067Z,2.10
2019-02-17T22:45:14.240Z,2.40
2019-02-17T22:47:42.985Z,1.77
2019-02-17T22:50:13.513Z,2.50
2019-02-17T22:52:42.370Z,1.80
2019-02-17T22:55:12.250Z,2.05
2019-02-17T22:57:41.025Z,1.80
2019-02-17T23:00:27.203Z,2.50
2019-02-17T23:02:56.008Z,2.17
2019-02-17T23:05:24.741Z,2.17
2019-02-17T23:07:53.680Z,2.72
2019-02-17T23:10:22.535Z,2.33
2019-02-17T23:12:51.268Z,2.62
2019-02-17T23:15:20.135Z,2.00
2019-02-17T23:17:49.040Z,1.85
2019-02-17T23:20:17.897Z,2.30
2019-02-17T23:22:46.821Z,2.33
2019-02-17T23:25:15.902Z,2.30
2019-02-17T23:27:44.667Z,2.22
2019-02-17T23:30:13.456Z,1.55
2019-02-17T23:32:42.264Z,2.12
2019-02-17T23:35:11.407Z,2.00
2019-02-17T23:37:40.515Z,2.52
2019-02-17T23:40:10.902Z,2.22
2019-02-17T23:42:39.532Z,1.70
2019-02-17T23:45:10.903Z,2.37
2019-02-17T23:47:40.042Z,2.00
2019-02-17T23:50:10.857Z,2.37
2019-02-17T23:52:41.176Z,2.22
2019-02-17T23:55:11.491Z,2.15
2019-02-17T23:57:40.246Z,2.42
